sensor_id;sensor_type;location;lat;lon;timestamp;P1;durP1;ratioP1;P2;durP2;ratioP2
12597;SDS011;6364;53.590;9.956;2024-02-28T00:00:38;61.25;;;36.95;;
12597;SDS011;6364;53.590;9.956;2024-02-28T00:03:04;59.25;;;37.58;;
12597;SDS011;6364;53.590;9.956;2024-02-28T00:05:30;65.50;;;38.90;;
12597;SDS011;6364;53.590;9.956;2024-02-28T00:07:56;60.85;;;37.58;;
12597;SDS011;6364;53.590;9.956;2024-02-28T00:10:21;61.88;;;39.03;;
12597;SDS011;6364;53.590;9.956;2024-02-28T00:12:47;61.35;;;36.33;;
12597;SDS011;6364;53.590;9.956;2024-02-28T00:15:12;56.35;;;35.30;;
12597;SDS011;6364;53.590;9.956;2024-02-28T00:17:38;59.10;;;37.13;;
12597;SDS011;6364;53.590;9.956;2024-02-28T00:20:05;58.55;;;35.95;;
12597;SDS011;6364;53.590;9.956;2024-02-28T00:22:31;57.75;;;35.55;;
12597;SDS011;6364;53.590;9.956;2024-02-28T00:24:57;59.38;;;36.25;;
12597;SDS011;6364;53.590;9.956;2024-02-28T00:27:22;61.88;;;34.70;;
12597;SDS011;6364;53.590;9.956;2024-02-28T00:29:47;61.50;;;36.85;;
12597;SDS011;6364;53.590;9.956;2024-02-28T00:32:13;60.13;;;35.40;;
12597;SDS011;6364;53.590;9.956;2024-02-28T00:34:38;64.07;;;38.25;;
12597;SDS011;6364;53.590;9.956;2024-02-28T00:37:04;59.05;;;36.20;;
12597;SDS011;6364;53.590;9.956;2024-02-28T00:39:29;60.28;;;36.13;;
12597;SDS011;6364;53.590;9.956;2024-02-28T00:41:54;63.25;;;37.10;;
12597;SDS011;6364;53.590;9.956;2024-02-28T00:44:20;59.85;;;35.95;;
12597;SDS011;6364;53.590;9.956;2024-02-28T00:46:45;63.90;;;37.78;;
12597;SDS011;6364;53.590;9.956;2024-02-28T00:49:11;63.13;;;37.13;;
12597;SDS011;6364;53.590;9.956;2024-02-28T00:51:36;61.78;;;37.13;;
12597;SDS011;6364;53.590;9.956;2024-02-28T00:54:02;62.35;;;36.80;;
12597;SDS011;6364;53.590;9.956;2024-02-28T00:56:27;64.38;;;37.47;;
12597;SDS011;6364;53.590;9.956;2024-02-28T00:58:53;64.20;;;36.35;;
12597;SDS011;6364;53.590;9.956;2024-02-28T01:01:18;64.70;;;37.10;;
12597;SDS011;6364;53.590;9.956;2024-02-28T01:03:44;61.80;;;35.80;;
12597;SDS011;6364;53.590;9.956;2024-02-28T01:06:09;62.30;;;36.95;;
12597;SDS011;6364;53.590;9.956;2024-02-28T01:08:34;63.78;;;36.70;;
12597;SDS011;6364;53.590;9.956;2024-02-28T01:11:00;57.42;;;34.70;;
12597;SDS011;6364;53.590;9.956;2024-02-28T01:13:25;59.17;;;34.40;;
12597;SDS011;6364;53.590;9.956;2024-02-28T01:15:50;57.83;;;33.67;;
12597;SDS011;6364;53.590;9.956;2024-02-28T01:18:16;62.95;;;36.03;;
12597;SDS011;6364;53.590;9.956;2024-02-28T01:20:41;64.18;;;35.22;;
12597;SDS011;6364;53.590;9.956;2024-02-28T01:23:07;60.33;;;34.65;;
12597;SDS011;6364;53.590;9.956;2024-02-28T01:25:32;56.72;;;32.53;;
12597;SDS011;6364;53.590;9.956;2024-02-28T01:27:57;56.30;;;32.95;;
12597;SDS011;6364;53.590;9.956;2024-02-28T01:30:23;55.05;;;32.05;;
12597;SDS011;6364;53.590;9.956;2024-02-28T01:32:48;59.58;;;34.80;;
12597;SDS011;6364;53.590;9.956;2024-02-28T01:35:14;61.15;;;32.47;;
12597;SDS011;6364;53.590;9.956;2024-02-28T01:37:39;58.58;;;34.60;;
12597;SDS011;6364;53.590;9.956;2024-02-28T01:40:05;59.42;;;32.72;;
12597;SDS011;6364;53.590;9.956;2024-02-28T01:42:31;53.35;;;31.38;;
12597;SDS011;6364;53.590;9.956;2024-02-28T01:44:56;58.42;;;32.92;;
12597;SDS011;6364;53.590;9.956;2024-02-28T01:47:21;59.65;;;32.95;;
12597;SDS011;6364;53.590;9.956;2024-02-28T01:49:47;53.53;;;30.83;;
12597;SDS011;6364;53.590;9.956;2024-02-28T01:52:13;59.22;;;31.60;;
12597;SDS011;6364;53.590;9.956;2024-02-28T01:54:39;58.33;;;32.65;;
12597;SDS011;6364;53.590;9.956;2024-02-28T01:57:06;53.40;;;29.83;;
12597;SDS011;6364;53.590;9.956;2024-02-28T01:59:31;58.40;;;31.40;;
12597;SDS011;6364;53.590;9.956;2024-02-28T02:01:57;55.30;;;31.48;;
12597;SDS011;6364;53.590;9.956;2024-02-28T02:04:22;52.20;;;30.48;;
12597;SDS011;6364;53.590;9.956;2024-02-28T02:06:48;53.55;;;31.00;;
12597;SDS011;6364;53.590;9.956;2024-02-28T02:09:14;48.85;;;28.75;;
12597;SDS011;6364;53.590;9.956;2024-02-28T02:11:40;53.72;;;29.88;;
12597;SDS011;6364;53.590;9.956;2024-02-28T02:14:05;53.67;;;30.40;;
12597;SDS011;6364;53.590;9.956;2024-02-28T02:16:31;51.65;;;29.40;;
12597;SDS011;6364;53.590;9.956;2024-02-28T02:18:56;52.47;;;28.83;;
12597;SDS011;6364;53.590;9.956;2024-02-28T02:21:32;51.80;;;28.58;;
12597;SDS011;6364;53.590;9.956;2024-02-28T02:24:19;48.95;;;26.83;;
12597;SDS011;6364;53.590;9.956;2024-02-28T02:26:45;52.40;;;29.25;;
12597;SDS011;6364;53.590;9.956;2024-02-28T02:29:11;53.58;;;29.10;;
12597;SDS011;6364;53.590;9.956;2024-02-28T02:31:38;51.55;;;28.23;;
12597;SDS011;6364;53.590;9.956;2024-02-28T02:34:03;53.35;;;28.52;;
12597;SDS011;6364;53.590;9.956;2024-02-28T02:36:28;49.25;;;27.20;;
12597;SDS011;6364;53.590;9.956;2024-02-28T02:38:54;50.33;;;27.05;;
12597;SDS011;6364;53.590;9.956;2024-02-28T02:41:19;52.28;;;28.10;;
12597;SDS011;6364;53.590;9.956;2024-02-28T02:43:44;50.78;;;27.83;;
12597;SDS011;6364;53.590;9.956;2024-02-28T02:46:10;52.10;;;27.55;;
12597;SDS011;6364;53.590;9.956;2024-02-28T02:48:35;50.10;;;27.63;;
12597;SDS011;6364;53.590;9.956;2024-02-28T02:51:01;45.85;;;25.75;;
12597;SDS011;6364;53.590;9.956;2024-02-28T02:53:26;49.42;;;25.83;;
12597;SDS011;6364;53.590;9.956;2024-02-28T02:55:52;43.63;;;23.50;;
12597;SDS011;6364;53.590;9.956;2024-02-28T02:58:19;46.60;;;23.83;;
12597;SDS011;6364;53.590;9.956;2024-02-28T03:00:44;49.95;;;25.33;;
12597;SDS011;6364;53.590;9.956;2024-02-28T03:03:09;44.17;;;23.90;;
12597;SDS011;6364;53.590;9.956;2024-02-28T03:05:35;47.33;;;24.90;;
12597;SDS011;6364;53.590;9.956;2024-02-28T03:08:00;47.45;;;25.05;;
12597;SDS011;6364;53.590;9.956;2024-02-28T03:10:25;48.42;;;25.83;;
12597;SDS011;6364;53.590;9.956;2024-02-28T03:12:51;47.05;;;24.60;;
12597;SDS011;6364;53.590;9.956;2024-02-28T03:15:16;48.17;;;24.65;;
12597;SDS011;6364;53.590;9.956;2024-02-28T03:17:42;47.78;;;24.73;;
12597;SDS011;6364;53.590;9.956;2024-02-28T03:20:07;45.75;;;24.30;;
12597;SDS011;6364;53.590;9.956;2024-02-28T03:22:33;47.47;;;24.77;;
12597;SDS011;6364;53.590;9.956;2024-02-28T03:24:58;44.10;;;23.67;;
12597;SDS011;6364;53.590;9.956;2024-02-28T03:27:24;46.50;;;24.55;;
12597;SDS011;6364;53.590;9.956;2024-02-28T03:29:49;44.22;;;23.90;;
12597;SDS011;6364;53.590;9.956;2024-02-28T03:32:17;44.20;;;23.50;;
12597;SDS011;6364;53.590;9.956;2024-02-28T03:34:43;42.80;;;22.85;;
12597;SDS011;6364;53.590;9.956;2024-02-28T03:37:08;44.80;;;23.85;;
12597;SDS011;6364;53.590;9.956;2024-02-28T03:39:33;43.38;;;22.63;;
12597;SDS011;6364;53.590;9.956;2024-02-28T03:41:59;43.97;;;22.98;;
12597;SDS011;6364;53.590;9.956;2024-02-28T03:44:24;43.67;;;22.35;;
12597;SDS011;6364;53.590;9.956;2024-02-28T03:46:50;42.90;;;22.15;;
12597;SDS011;6364;53.590;9.956;2024-02-28T03:49:16;43.60;;;22.77;;
12597;SDS011;6364;53.590;9.956;2024-02-28T03:51:41;45.65;;;24.23;;
12597;SDS011;6364;53.590;9.956;2024-02-28T03:54:07;45.95;;;22.90;;
12597;SDS011;6364;53.590;9.956;2024-02-28T03:56:33;44.33;;;24.05;;
12597;SDS011;6364;53.590;9.956;2024-02-28T03:59:00;46.17;;;24.15;;
12597;SDS011;6364;53.590;9.956;2024-02-28T04:01:25;44.90;;;24.92;;
12597;SDS011;6364;53.590;9.956;2024-02-28T04:03:51;45.33;;;24.15;;
12597;SDS011;6364;53.590;9.956;2024-02-28T04:06:16;45.30;;;23.95;;
12597;SDS011;6364;53.590;9.956;2024-02-28T04:08:41;43.42;;;24.05;;
12597;SDS011;6364;53.590;9.956;2024-02-28T04:11:07;45.72;;;24.10;;
12597;SDS011;6364;53.590;9.956;2024-02-28T04:13:32;46.80;;;24.73;;
12597;SDS011;6364;53.590;9.956;2024-02-28T04:15:58;45.38;;;23.77;;
12597;SDS011;6364;53.590;9.956;2024-02-28T04:18:23;48.20;;;24.85;;
12597;SDS011;6364;53.590;9.956;2024-02-28T04:20:48;48.75;;;25.42;;
12597;SDS011;6364;53.590;9.956;2024-02-28T04:23:14;42.92;;;23.13;;
12597;SDS011;6364;53.590;9.956;2024-02-28T04:25:39;46.53;;;24.65;;
12597;SDS011;6364;53.590;9.956;2024-02-28T04:28:05;50.88;;;25.70;;
12597;SDS011;6364;53.590;9.956;2024-02-28T04:30:31;50.00;;;25.83;;
12597;SDS011;6364;53.590;9.956;2024-02-28T04:32:57;48.45;;;24.48;;
12597;SDS011;6364;53.590;9.956;2024-02-28T04:35:22;45.20;;;24.35;;
12597;SDS011;6364;53.590;9.956;2024-02-28T04:37:47;46.58;;;24.58;;
12597;SDS011;6364;53.590;9.956;2024-02-28T04:40:13;44.42;;;24.20;;
12597;SDS011;6364;53.590;9.956;2024-02-28T04:42:39;46.05;;;23.15;;
12597;SDS011;6364;53.590;9.956;2024-02-28T04:45:05;46.13;;;24.58;;
12597;SDS011;6364;53.590;9.956;2024-02-28T04:47:30;48.78;;;25.83;;
12597;SDS011;6364;53.590;9.956;2024-02-28T04:49:56;49.97;;;25.73;;
12597;SDS011;6364;53.590;9.956;2024-02-28T04:52:22;47.05;;;25.52;;
12597;SDS011;6364;53.590;9.956;2024-02-28T04:54:48;47.88;;;25.65;;
12597;SDS011;6364;53.590;9.956;2024-02-28T04:57:13;47.83;;;25.58;;
12597;SDS011;6364;53.590;9.956;2024-02-28T04:59:41;46.30;;;25.33;;
12597;SDS011;6364;53.590;9.956;2024-02-28T05:02:07;47.85;;;25.27;;
12597;SDS011;6364;53.590;9.956;2024-02-28T05:04:32;51.85;;;27.40;;
12597;SDS011;6364;53.590;9.956;2024-02-28T05:06:57;50.08;;;25.00;;
12597;SDS011;6364;53.590;9.956;2024-02-28T05:09:23;50.88;;;25.85;;
12597;SDS011;6364;53.590;9.956;2024-02-28T05:11:48;50.95;;;26.85;;
12597;SDS011;6364;53.590;9.956;2024-02-28T05:14:14;52.17;;;26.77;;
12597;SDS011;6364;53.590;9.956;2024-02-28T05:16:39;54.38;;;27.13;;
12597;SDS011;6364;53.590;9.956;2024-02-28T05:19:05;48.63;;;26.63;;
12597;SDS011;6364;53.590;9.956;2024-02-28T05:21:30;51.15;;;26.67;;
12597;SDS011;6364;53.590;9.956;2024-02-28T05:23:55;46.85;;;25.42;;
12597;SDS011;6364;53.590;9.956;2024-02-28T05:26:21;55.53;;;28.60;;
12597;SDS011;6364;53.590;9.956;2024-02-28T05:28:46;55.47;;;27.70;;
12597;SDS011;6364;53.590;9.956;2024-02-28T05:31:21;48.92;;;26.73;;
12597;SDS011;6364;53.590;9.956;2024-02-28T05:33:54;51.30;;;27.65;;
12597;SDS011;6364;53.590;9.956;2024-02-28T05:36:21;50.92;;;26.75;;
12597;SDS011;6364;53.590;9.956;2024-02-28T05:38:47;54.55;;;28.90;;
12597;SDS011;6364;53.590;9.956;2024-02-28T05:41:13;55.03;;;28.02;;
12597;SDS011;6364;53.590;9.956;2024-02-28T05:43:39;53.13;;;27.55;;
12597;SDS011;6364;53.590;9.956;2024-02-28T05:46:05;54.28;;;28.40;;
12597;SDS011;6364;53.590;9.956;2024-02-28T05:48:30;52.92;;;27.70;;
12597;SDS011;6364;53.590;9.956;2024-02-28T05:50:56;55.63;;;28.90;;
12597;SDS011;6364;53.590;9.956;2024-02-28T05:53:21;53.88;;;28.42;;
12597;SDS011;6364;53.590;9.956;2024-02-28T05:55:47;51.75;;;28.98;;
12597;SDS011;6364;53.590;9.956;2024-02-28T05:58:13;59.95;;;29.55;;
12597;SDS011;6364;53.590;9.956;2024-02-28T06:00:38;54.08;;;29.08;;
12597;SDS011;6364;53.590;9.956;2024-02-28T06:03:04;56.25;;;30.50;;
12597;SDS011;6364;53.590;9.956;2024-02-28T06:05:30;50.75;;;28.33;;
12597;SDS011;6364;53.590;9.956;2024-02-28T06:07:55;58.28;;;28.52;;
12597;SDS011;6364;53.590;9.956;2024-02-28T06:10:21;54.17;;;28.85;;
12597;SDS011;6364;53.590;9.956;2024-02-28T06:12:46;51.72;;;28.20;;
12597;SDS011;6364;53.590;9.956;2024-02-28T06:15:12;54.10;;;29.88;;
12597;SDS011;6364;53.590;9.956;2024-02-28T06:17:37;50.67;;;28.08;;
12597;SDS011;6364;53.590;9.956;2024-02-28T06:20:03;55.60;;;29.73;;
12597;SDS011;6364;53.590;9.956;2024-02-28T06:22:28;47.15;;;27.85;;
12597;SDS011;6364;53.590;9.956;2024-02-28T06:24:53;50.75;;;28.00;;
12597;SDS011;6364;53.590;9.956;2024-02-28T06:27:19;49.78;;;27.08;;
12597;SDS011;6364;53.590;9.956;2024-02-28T06:29:44;50.28;;;27.15;;
12597;SDS011;6364;53.590;9.956;2024-02-28T06:32:10;47.75;;;25.98;;
12597;SDS011;6364;53.590;9.956;2024-02-28T06:34:35;47.28;;;26.92;;
12597;SDS011;6364;53.590;9.956;2024-02-28T06:37:00;47.90;;;24.95;;
12597;SDS011;6364;53.590;9.956;2024-02-28T06:39:26;45.13;;;24.88;;
12597;SDS011;6364;53.590;9.956;2024-02-28T06:41:51;43.42;;;24.73;;
12597;SDS011;6364;53.590;9.956;2024-02-28T06:44:20;43.15;;;24.50;;
12597;SDS011;6364;53.590;9.956;2024-02-28T06:46:45;40.42;;;23.25;;
12597;SDS011;6364;53.590;9.956;2024-02-28T06:49:10;39.28;;;23.73;;
12597;SDS011;6364;53.590;9.956;2024-02-28T06:51:36;46.72;;;24.05;;
12597;SDS011;6364;53.590;9.956;2024-02-28T06:54:01;39.20;;;21.88;;
12597;SDS011;6364;53.590;9.956;2024-02-28T06:56:27;41.05;;;22.85;;
12597;SDS011;6364;53.590;9.956;2024-02-28T06:58:52;43.85;;;23.10;;
12597;SDS011;6364;53.590;9.956;2024-02-28T07:01:17;38.72;;;20.95;;
12597;SDS011;6364;53.590;9.956;2024-02-28T07:03:43;37.47;;;21.58;;
12597;SDS011;6364;53.590;9.956;2024-02-28T07:06:09;37.65;;;21.67;;
12597;SDS011;6364;53.590;9.956;2024-02-28T07:08:34;36.25;;;21.75;;
12597;SDS011;6364;53.590;9.956;2024-02-28T07:10:59;37.13;;;21.02;;
12597;SDS011;6364;53.590;9.956;2024-02-28T07:13:26;34.03;;;20.25;;
12597;SDS011;6364;53.590;9.956;2024-02-28T07:15:52;35.63;;;20.25;;
12597;SDS011;6364;53.590;9.956;2024-02-28T07:18:19;38.47;;;20.77;;
12597;SDS011;6364;53.590;9.956;2024-02-28T07:20:45;35.50;;;20.55;;
12597;SDS011;6364;53.590;9.956;2024-02-28T07:23:10;35.88;;;21.52;;
12597;SDS011;6364;53.590;9.956;2024-02-28T07:25:36;35.25;;;21.67;;
12597;SDS011;6364;53.590;9.956;2024-02-28T07:28:01;37.67;;;22.25;;
12597;SDS011;6364;53.590;9.956;2024-02-28T07:30:27;38.63;;;21.23;;
12597;SDS011;6364;53.590;9.956;2024-02-28T07:32:53;39.55;;;21.27;;
12597;SDS011;6364;53.590;9.956;2024-02-28T07:35:18;35.30;;;21.17;;
12597;SDS011;6364;53.590;9.956;2024-02-28T07:37:45;37.28;;;20.83;;
12597;SDS011;6364;53.590;9.956;2024-02-28T07:40:11;36.00;;;21.70;;
12597;SDS011;6364;53.590;9.956;2024-02-28T07:42:37;39.45;;;22.17;;
12597;SDS011;6364;53.590;9.956;2024-02-28T07:45:02;37.67;;;21.90;;
12597;SDS011;6364;53.590;9.956;2024-02-28T07:47:28;36.50;;;21.40;;
12597;SDS011;6364;53.590;9.956;2024-02-28T07:49:53;33.95;;;21.60;;
12597;SDS011;6364;53.590;9.956;2024-02-28T07:52:19;38.35;;;21.88;;
12597;SDS011;6364;53.590;9.956;2024-02-28T07:54:45;39.38;;;23.25;;
12597;SDS011;6364;53.590;9.956;2024-02-28T07:57:10;42.53;;;22.83;;
12597;SDS011;6364;53.590;9.956;2024-02-28T07:59:43;40.28;;;23.30;;
12597;SDS011;6364;53.590;9.956;2024-02-28T08:05:21;38.83;;;23.00;;
12597;SDS011;6364;53.590;9.956;2024-02-28T08:07:46;39.80;;;23.23;;
12597;SDS011;6364;53.590;9.956;2024-02-28T08:10:11;45.38;;;25.73;;
12597;SDS011;6364;53.590;9.956;2024-02-28T08:12:37;45.20;;;25.80;;
12597;SDS011;6364;53.590;9.956;2024-02-28T08:15:02;43.00;;;24.77;;
12597;SDS011;6364;53.590;9.956;2024-02-28T08:17:28;45.75;;;25.65;;
12597;SDS011;6364;53.590;9.956;2024-02-28T08:19:54;46.40;;;26.13;;
12597;SDS011;6364;53.590;9.956;2024-02-28T08:22:19;46.08;;;27.38;;
12597;SDS011;6364;53.590;9.956;2024-02-28T08:24:45;45.92;;;27.42;;
12597;SDS011;6364;53.590;9.956;2024-02-28T08:27:10;47.67;;;28.20;;
12597;SDS011;6364;53.590;9.956;2024-02-28T08:29:36;54.17;;;29.45;;
12597;SDS011;6364;53.590;9.956;2024-02-28T08:32:03;45.58;;;27.35;;
12597;SDS011;6364;53.590;9.956;2024-02-28T08:34:28;53.15;;;29.40;;
12597;SDS011;6364;53.590;9.956;2024-02-28T08:36:54;52.30;;;29.52;;
12597;SDS011;6364;53.590;9.956;2024-02-28T08:39:19;52.45;;;29.20;;
12597;SDS011;6364;53.590;9.956;2024-02-28T08:41:44;54.47;;;30.00;;
12597;SDS011;6364;53.590;9.956;2024-02-28T08:44:10;52.58;;;31.13;;
12597;SDS011;6364;53.590;9.956;2024-02-28T08:46:35;58.70;;;30.58;;
12597;SDS011;6364;53.590;9.956;2024-02-28T08:49:01;57.40;;;30.52;;
12597;SDS011;6364;53.590;9.956;2024-02-28T08:51:26;54.47;;;31.35;;
12597;SDS011;6364;53.590;9.956;2024-02-28T08:53:52;58.28;;;31.25;;
12597;SDS011;6364;53.590;9.956;2024-02-28T08:56:18;54.67;;;31.33;;
12597;SDS011;6364;53.590;9.956;2024-02-28T08:58:44;59.10;;;32.78;;
12597;SDS011;6364;53.590;9.956;2024-02-28T09:01:12;60.08;;;31.77;;
12597;SDS011;6364;53.590;9.956;2024-02-28T09:03:39;55.10;;;30.88;;
12597;SDS011;6364;53.590;9.956;2024-02-28T09:06:04;52.80;;;30.33;;
12597;SDS011;6364;53.590;9.956;2024-02-28T09:08:30;53.05;;;30.73;;
12597;SDS011;6364;53.590;9.956;2024-02-28T09:10:55;50.78;;;29.75;;
12597;SDS011;6364;53.590;9.956;2024-02-28T09:13:20;53.63;;;29.88;;
12597;SDS011;6364;53.590;9.956;2024-02-28T09:15:46;49.35;;;28.73;;
12597;SDS011;6364;53.590;9.956;2024-02-28T09:18:11;52.05;;;30.02;;
12597;SDS011;6364;53.590;9.956;2024-02-28T09:20:37;47.50;;;29.35;;
12597;SDS011;6364;53.590;9.956;2024-02-28T09:23:02;49.42;;;28.55;;
12597;SDS011;6364;53.590;9.956;2024-02-28T09:25:27;47.63;;;28.65;;
12597;SDS011;6364;53.590;9.956;2024-02-28T09:27:53;48.97;;;28.20;;
12597;SDS011;6364;53.590;9.956;2024-02-28T09:30:18;43.78;;;27.65;;
12597;SDS011;6364;53.590;9.956;2024-02-28T09:32:44;45.10;;;28.20;;
12597;SDS011;6364;53.590;9.956;2024-02-28T09:35:09;43.13;;;25.95;;
12597;SDS011;6364;53.590;9.956;2024-02-28T09:37:36;42.05;;;25.52;;
12597;SDS011;6364;53.590;9.956;2024-02-28T09:40:02;40.47;;;24.63;;
12597;SDS011;6364;53.590;9.956;2024-02-28T09:42:28;40.70;;;25.30;;
12597;SDS011;6364;53.590;9.956;2024-02-28T09:44:53;43.05;;;26.05;;
12597;SDS011;6364;53.590;9.956;2024-02-28T09:47:19;42.90;;;25.27;;
12597;SDS011;6364;53.590;9.956;2024-02-28T09:49:45;41.20;;;25.13;;
12597;SDS011;6364;53.590;9.956;2024-02-28T09:52:10;40.95;;;25.10;;
12597;SDS011;6364;53.590;9.956;2024-02-28T09:54:36;41.75;;;25.05;;
12597;SDS011;6364;53.590;9.956;2024-02-28T09:57:01;41.20;;;23.92;;
12597;SDS011;6364;53.590;9.956;2024-02-28T09:59:28;43.78;;;25.88;;
12597;SDS011;6364;53.590;9.956;2024-02-28T10:01:55;41.15;;;25.00;;
12597;SDS011;6364;53.590;9.956;2024-02-28T10:04:23;46.08;;;25.85;;
12597;SDS011;6364;53.590;9.956;2024-02-28T10:06:49;41.38;;;24.75;;
12597;SDS011;6364;53.590;9.956;2024-02-28T10:09:15;46.10;;;26.70;;
12597;SDS011;6364;53.590;9.956;2024-02-28T10:11:41;39.67;;;25.23;;
12597;SDS011;6364;53.590;9.956;2024-02-28T10:14:08;39.03;;;24.45;;
12597;SDS011;6364;53.590;9.956;2024-02-28T10:16:34;37.08;;;22.73;;
12597;SDS011;6364;53.590;9.956;2024-02-28T10:18:59;37.38;;;23.40;;
12597;SDS011;6364;53.590;9.956;2024-02-28T10:21:24;34.80;;;22.30;;
12597;SDS011;6364;53.590;9.956;2024-02-28T10:23:51;39.70;;;23.52;;
12597;SDS011;6364;53.590;9.956;2024-02-28T10:26:16;37.83;;;23.02;;
12597;SDS011;6364;53.590;9.956;2024-02-28T10:28:42;36.10;;;24.27;;
12597;SDS011;6364;53.590;9.956;2024-02-28T10:31:09;38.70;;;24.02;;
12597;SDS011;6364;53.590;9.956;2024-02-28T10:33:35;38.10;;;22.98;;
12597;SDS011;6364;53.590;9.956;2024-02-28T10:36:02;35.72;;;22.48;;
12597;SDS011;6364;53.590;9.956;2024-02-28T10:38:28;33.25;;;22.63;;
12597;SDS011;6364;53.590;9.956;2024-02-28T10:40:53;33.78;;;22.85;;
12597;SDS011;6364;53.590;9.956;2024-02-28T10:43:19;33.70;;;21.60;;
12597;SDS011;6364;53.590;9.956;2024-02-28T10:45:45;34.30;;;22.73;;
12597;SDS011;6364;53.590;9.956;2024-02-28T10:48:11;34.63;;;22.55;;
12597;SDS011;6364;53.590;9.956;2024-02-28T10:50:39;30.88;;;20.95;;
12597;SDS011;6364;53.590;9.956;2024-02-28T10:53:04;32.65;;;21.70;;
12597;SDS011;6364;53.590;9.956;2024-02-28T10:55:33;30.85;;;20.67;;
12597;SDS011;6364;53.590;9.956;2024-02-28T10:58:06;35.28;;;22.70;;
12597;SDS011;6364;53.590;9.956;2024-02-28T11:00:33;35.43;;;20.97;;
12597;SDS011;6364;53.590;9.956;2024-02-28T11:02:59;34.35;;;21.58;;
12597;SDS011;6364;53.590;9.956;2024-02-28T11:05:35;34.03;;;21.63;;
12597;SDS011;6364;53.590;9.956;2024-02-28T11:08:21;37.50;;;22.77;;
12597;SDS011;6364;53.590;9.956;2024-02-28T11:10:53;40.00;;;23.63;;
12597;SDS011;6364;53.590;9.956;2024-02-28T11:13:34;35.33;;;21.42;;
12597;SDS011;6364;53.590;9.956;2024-02-28T11:16:09;33.15;;;20.90;;
12597;SDS011;6364;53.590;9.956;2024-02-28T11:18:35;35.28;;;21.50;;
12597;SDS011;6364;53.590;9.956;2024-02-28T11:21:00;38.42;;;22.55;;
12597;SDS011;6364;53.590;9.956;2024-02-28T11:23:35;36.58;;;21.65;;
12597;SDS011;6364;53.590;9.956;2024-02-28T11:26:02;34.00;;;20.48;;
12597;SDS011;6364;53.590;9.956;2024-02-28T11:28:28;35.22;;;21.02;;
12597;SDS011;6364;53.590;9.956;2024-02-28T11:30:54;34.45;;;20.65;;
12597;SDS011;6364;53.590;9.956;2024-02-28T11:33:19;34.55;;;21.23;;
12597;SDS011;6364;53.590;9.956;2024-02-28T11:35:44;30.85;;;19.17;;
12597;SDS011;6364;53.590;9.956;2024-02-28T11:38:10;33.25;;;18.80;;
12597;SDS011;6364;53.590;9.956;2024-02-28T11:40:37;32.28;;;19.05;;
12597;SDS011;6364;53.590;9.956;2024-02-28T11:43:02;38.40;;;21.58;;
12597;SDS011;6364;53.590;9.956;2024-02-28T11:45:28;38.63;;;22.50;;
12597;SDS011;6364;53.590;9.956;2024-02-28T11:47:55;36.65;;;21.92;;
12597;SDS011;6364;53.590;9.956;2024-02-28T11:50:20;40.67;;;22.77;;
12597;SDS011;6364;53.590;9.956;2024-02-28T11:52:45;41.20;;;24.45;;
12597;SDS011;6364;53.590;9.956;2024-02-28T11:55:11;38.03;;;22.83;;
12597;SDS011;6364;53.590;9.956;2024-02-28T11:57:37;42.20;;;23.90;;
12597;SDS011;6364;53.590;9.956;2024-02-28T12:00:03;39.50;;;23.88;;
12597;SDS011;6364;53.590;9.956;2024-02-28T12:02:32;40.25;;;23.60;;
12597;SDS011;6364;53.590;9.956;2024-02-28T12:05:01;41.58;;;24.13;;
12597;SDS011;6364;53.590;9.956;2024-02-28T12:07:27;42.08;;;24.33;;
12597;SDS011;6364;53.590;9.956;2024-02-28T12:09:55;40.60;;;24.35;;
12597;SDS011;6364;53.590;9.956;2024-02-28T12:12:21;41.53;;;24.63;;
12597;SDS011;6364;53.590;9.956;2024-02-28T12:14:47;40.45;;;23.83;;
12597;SDS011;6364;53.590;9.956;2024-02-28T12:17:14;41.28;;;24.00;;
12597;SDS011;6364;53.590;9.956;2024-02-28T12:19:39;39.40;;;23.80;;
12597;SDS011;6364;53.590;9.956;2024-02-28T12:22:05;42.13;;;24.10;;
12597;SDS011;6364;53.590;9.956;2024-02-28T12:24:32;43.85;;;24.00;;
12597;SDS011;6364;53.590;9.956;2024-02-28T12:26:58;42.90;;;24.75;;
12597;SDS011;6364;53.590;9.956;2024-02-28T12:29:23;41.58;;;23.52;;
12597;SDS011;6364;53.590;9.956;2024-02-28T12:31:49;39.90;;;24.60;;
12597;SDS011;6364;53.590;9.956;2024-02-28T12:34:14;44.90;;;24.50;;
12597;SDS011;6364;53.590;9.956;2024-02-28T12:36:42;42.10;;;23.17;;
12597;SDS011;6364;53.590;9.956;2024-02-28T12:39:08;39.55;;;22.35;;
12597;SDS011;6364;53.590;9.956;2024-02-28T12:41:36;37.10;;;21.73;;
12597;SDS011;6364;53.590;9.956;2024-02-28T12:44:05;37.72;;;21.63;;
12597;SDS011;6364;53.590;9.956;2024-02-28T12:46:31;37.13;;;21.90;;
12597;SDS011;6364;53.590;9.956;2024-02-28T12:48:57;37.35;;;22.73;;
12597;SDS011;6364;53.590;9.956;2024-02-28T12:51:42;36.35;;;19.50;;
12597;SDS011;6364;53.590;9.956;2024-02-28T12:54:09;34.47;;;20.73;;
12597;SDS011;6364;53.590;9.956;2024-02-28T12:56:38;35.55;;;20.58;;
12597;SDS011;6364;53.590;9.956;2024-02-28T12:59:04;32.13;;;19.65;;
12597;SDS011;6364;53.590;9.956;2024-02-28T13:01:32;33.05;;;19.77;;
12597;SDS011;6364;53.590;9.956;2024-02-28T13:03:58;31.17;;;18.90;;
12597;SDS011;6364;53.590;9.956;2024-02-28T13:06:23;33.35;;;18.67;;
12597;SDS011;6364;53.590;9.956;2024-02-28T13:08:49;33.45;;;18.33;;
12597;SDS011;6364;53.590;9.956;2024-02-28T13:11:18;32.28;;;18.15;;
12597;SDS011;6364;53.590;9.956;2024-02-28T13:13:45;33.50;;;18.98;;
12597;SDS011;6364;53.590;9.956;2024-02-28T13:16:10;35.95;;;19.90;;
12597;SDS011;6364;53.590;9.956;2024-02-28T13:18:36;30.77;;;18.92;;
12597;SDS011;6364;53.590;9.956;2024-02-28T13:21:01;33.35;;;19.90;;
12597;SDS011;6364;53.590;9.956;2024-02-28T13:23:28;32.42;;;19.13;;
12597;SDS011;6364;53.590;9.956;2024-02-28T13:25:56;35.88;;;20.13;;
12597;SDS011;6364;53.590;9.956;2024-02-28T13:28:21;37.15;;;19.90;;
12597;SDS011;6364;53.590;9.956;2024-02-28T13:30:54;37.13;;;20.07;;
12597;SDS011;6364;53.590;9.956;2024-02-28T13:33:20;35.28;;;19.30;;
12597;SDS011;6364;53.590;9.956;2024-02-28T13:35:45;35.97;;;20.25;;
12597;SDS011;6364;53.590;9.956;2024-02-28T13:38:10;40.55;;;21.38;;
12597;SDS011;6364;53.590;9.956;2024-02-28T13:40:36;37.30;;;21.23;;
12597;SDS011;6364;53.590;9.956;2024-02-28T13:43:02;35.80;;;20.13;;
12597;SDS011;6364;53.590;9.956;2024-02-28T13:45:28;36.40;;;20.25;;
12597;SDS011;6364;53.590;9.956;2024-02-28T13:47:53;37.30;;;20.30;;
12597;SDS011;6364;53.590;9.956;2024-02-28T13:50:18;33.35;;;18.50;;
12597;SDS011;6364;53.590;9.956;2024-02-28T13:52:44;36.40;;;20.05;;
12597;SDS011;6364;53.590;9.956;2024-02-28T13:55:09;37.00;;;19.35;;
12597;SDS011;6364;53.590;9.956;2024-02-28T13:57:35;30.35;;;17.35;;
12597;SDS011;6364;53.590;9.956;2024-02-28T14:00:00;32.75;;;18.52;;
12597;SDS011;6364;53.590;9.956;2024-02-28T14:02:25;30.58;;;18.33;;
12597;SDS011;6364;53.590;9.956;2024-02-28T14:04:54;35.40;;;18.45;;
12597;SDS011;6364;53.590;9.956;2024-02-28T14:07:20;30.13;;;17.38;;
12597;SDS011;6364;53.590;9.956;2024-02-28T14:09:45;27.83;;;17.08;;
12597;SDS011;6364;53.590;9.956;2024-02-28T14:12:11;34.40;;;18.60;;
12597;SDS011;6364;53.590;9.956;2024-02-28T14:14:36;32.47;;;17.83;;
12597;SDS011;6364;53.590;9.956;2024-02-28T14:17:04;29.85;;;17.73;;
12597;SDS011;6364;53.590;9.956;2024-02-28T14:19:30;29.95;;;17.58;;
12597;SDS011;6364;53.590;9.956;2024-02-28T14:21:56;30.52;;;17.70;;
12597;SDS011;6364;53.590;9.956;2024-02-28T14:24:21;29.92;;;16.92;;
12597;SDS011;6364;53.590;9.956;2024-02-28T14:26:46;28.52;;;18.02;;
12597;SDS011;6364;53.590;9.956;2024-02-28T14:29:12;30.55;;;16.95;;